Flight Track Log - Related Links

Times and Time Zones

All times are in EDT time to prevent confusion due to time zone crossing. See the AAY592 flight status page for this flight to view local times or setup timezone preferences in your user account.

Time Position Orientation Groundspeed Altitude Reporting Facility
EDT Latitude Longitude Course Direction KTS MPH feet Rate Location/Type
Sun 02:16:57 PM 36.0761 -115.1683 270° West 184 212 3,100  Level Los Angeles Center
Sun 02:17:46 PM 36.0764 -115.2292 270° West 207 238 4,300 1,800 Climbing Los Angeles Center
Sun 02:18:47 PM 36.0286 -115.2875 225° Southwest 276 318 6,400 1,397 Climbing Los Angeles Center
Sun 02:19:42 PM 35.9600 -115.2994 188° South 284 327 7,000 776 Climbing Los Angeles Center
Sun 02:20:12 PM 35.9303 -115.2842 157° South 279 321 7,500 2,597 Climbing Los Angeles Center
Sun 02:20:49 PM 35.8750 -115.2661 165° South 279 321 9,900 2,633 Climbing Los Angeles Center
Sun 02:21:50 PM 35.8383 -115.1772 117° Southeast 321 369 11,800 1,893 Climbing Los Angeles Center
Sun 02:23:18 PM 35.8253 -114.9919 95° East 385 443 14,600 2,000 Climbing Los Angeles Center
Sun 02:24:20 PM 35.8389 -114.8592 83° East 397 457 16,800 2,129 Climbing Los Angeles Center
Sun 02:25:22 PM 35.8519 -114.7161 84° East 419 482 19,000 1,790 Climbing Los Angeles Center
Sun 02:26:24 PM 35.8619 -114.5983 84° East 430 495 20,500 1,645 Climbing Los Angeles Center
Sun 02:27:26 PM 35.8786 -114.4144 84° East 453 521 22,400 1,790 Climbing Los Angeles Center
Sun 02:28:28 PM 35.8942 -114.2244 84° East 466 536 24,200 1,645 Climbing Los Angeles Center
Sun 02:29:30 PM 35.9094 -114.0608 83° East 479 551 25,800 1,536 Climbing Los Angeles Center
Sun 02:30:33 PM 35.9203 -113.8981 85° East 478 550 27,400 1,536 Climbing Los Angeles Center
Sun 02:31:35 PM 35.8906 -113.7406 103° East 475 547 29,000 774 Climbing Los Angeles Center
Sun 02:32:37 PM 35.8553 -113.5711 104° East 467 537 29,000  Level Los Angeles Center
Sun 02:33:39 PM 35.8239 -113.4183 104° East 463 533 29,000  Level Los Angeles Center
Sun 02:34:41 PM 35.7931 -113.2669 104° East 459 528 29,000  Level Los Angeles Center
Sun 02:35:43 PM 35.7611 -113.1150 104° East 460 529 29,000  Level Los Angeles Center
Sun 02:36:57 PM 35.7289 -112.9600 104° East 464 534 29,000  Level Los Angeles Center
Sun 02:38:00 PM 35.6692 -112.7558 110° East 466 536 29,000  Level Los Angeles Center
Sun 02:39:02 PM 35.6108 -112.6086 116° Southeast 461 531 29,000  Level Los Angeles Center
Sun 02:40:04 PM 35.5497 -112.4711 119° Southeast 461 531 29,000  Level Los Angeles Center
Sun 02:41:06 PM 35.4558 -112.3767 141° Southeast 440 506 29,000  Level Los Angeles Center
Sun 02:42:08 PM 35.3450 -112.3158 156° South 433 498 29,000  Level Los Angeles Center
Sun 02:43:10 PM 35.2350 -112.2556 156° South 434 499 29,000  Level Los Angeles Center
Sun 02:44:13 PM 35.1236 -112.1950 156° South 435 501 29,000 -864 Level Albuquerque Center
Sun 02:45:15 PM 34.9981 -112.1267 156° South 416 479 27,200 -1,790 Descending Albuquerque Center
Sun 02:46:17 PM 34.9006 -112.0722 155° Southeast 395 455 25,300 -1,887 Descending Albuquerque Center
Sun 02:47:19 PM 34.8061 -112.0219 156° South 378 435 23,300 -2,000 Descending Albuquerque Center
Sun 02:48:20 PM 34.7181 -111.9736 156° South 365 420 21,200 -2,146 Descending Albuquerque Center
Sun 02:49:22 PM 34.6283 -111.9247 156° South 356 410 18,900 -2,226 Descending Albuquerque Center
Sun 02:50:24 PM 34.5158 -111.9019 171° South 347 399 16,600 -2,323 Descending Albuquerque Center
Sun 02:51:26 PM 34.4222 -111.9086 183° South 341 392 14,100 -2,129 Descending Albuquerque Center
Sun 02:52:28 PM 34.3289 -111.9144 183° South 337 388 12,200 -1,306 Descending Albuquerque Center
Sun 02:53:30 PM 34.2425 -111.9194 183° South 322 371 11,400 -629 Descending Albuquerque Center
Sun 02:54:32 PM 34.1619 -111.9247 183° South 296 341 10,900 -435 Descending Albuquerque Center
Sun 02:55:34 PM 34.0647 -111.9092 172° South 307 353 10,500 -484 Descending Albuquerque Center
Sun 02:56:36 PM 33.9975 -111.8475 143° Southeast 306 352 9,900 -629 Descending Albuquerque Center
Sun 02:57:38 PM 33.9375 -111.7933 143° Southeast 294 338 9,200 -864 Descending Albuquerque Center
Sun 02:58:41 PM 33.8619 -111.7261 144° Southeast 285 328 8,100 -1,008 Descending Albuquerque Center
Sun 02:59:43 PM 33.7989 -111.6689 143° Southeast 285 328 7,100 -581 Descending Albuquerque Center
Sun 03:00:45 PM 33.7331 -111.6181 147° Southeast 282 325 6,900 -97 Descending Albuquerque Center
Sun 03:01:47 PM 33.6633 -111.5764 154° Southeast 281 323 6,900  Level Albuquerque Center
Sun 03:02:49 PM 33.5919 -111.5353 154° Southeast 284 327 6,900 -432 Level Albuquerque Center
Sun 03:03:52 PM 33.5133 -111.5400 183° South 281 323 6,000 -683 Descending Albuquerque Center
Sun 03:04:52 PM 33.4350 -111.5433 182° South 233 268 5,500 -469 Descending Albuquerque Center
Sun 03:06:00 PM 33.3667 -111.5500 185° South 220 253 5,000 -703 Descending Phoenix TRACON
Sun 03:07:00 PM 33.3000 -111.5333 168° South 210 242 4,000 -950 Descending Phoenix TRACON
Sun 03:08:00 PM 33.2667 -111.5667 220° Southwest 179 206 3,100 -843 Descending Phoenix TRACON
Sun 03:09:01 PM 33.2667 -111.6167 270° West 160 184 2,300 -738 Descending Phoenix TRACON
Sun 03:10:02 PM 33.2903 -111.6397 321° Northwest 153 176 1,600 -689 Descending Albuquerque Center

Login

Don't have an account? Register now (free) for customized features, flight alerts, and more!